Time;durP1;ratioP1;P1;durP2;ratioP2;P2;SDS_P1;SDS_P2;PMS_P1;PMS_P2;Temp;Humidity;BMP_temperature;BMP_pressure;BME280_temperature;BME280_humidity;BME280_pressure;Samples;Min_cycle;Max_cycle;Signal;HPM_P1;HPM_P2
2022/06/01 00:02:18;;;;;;;3.60;3.00;;;15.90;40.50;;;;;;5136871;27;20515;-73
2022/06/01 00:04:45;;;;;;;4.37;2.90;;;15.90;40.70;;;;;;5127373;27;20534;-75
2022/06/01 00:07:12;;;;;;;3.13;2.87;;;15.90;40.70;;;;;;5131248;27;20424;-74
2022/06/01 00:09:39;;;;;;;2.63;2.43;;;15.80;40.70;;;;;;5120761;27;20431;-74
2022/06/01 00:12:07;;;;;;;6.57;2.60;;;15.80;40.90;;;;;;5134324;27;20976;-74
2022/06/01 00:14:34;;;;;;;3.30;3.00;;;15.80;41.10;;;;;;5135719;27;20432;-74
2022/06/01 00:17:01;;;;;;;2.97;2.73;;;15.80;41.10;;;;;;5134667;27;20917;-73
2022/06/01 00:19:29;;;;;;;3.33;2.90;;;15.80;41.90;;;;;;5135984;27;20445;-74
2022/06/01 00:22:16;;;;;;;2.87;2.63;;;15.80;41.20;;;;;;5135938;27;20442;-76
2022/06/01 00:24:44;;;;;;;2.70;2.50;;;15.80;41.30;;;;;;5126237;27;20486;-73
2022/06/01 00:27:13;;;;;;;3.23;2.73;;;15.70;41.30;;;;;;5131069;27;20442;-73
2022/06/01 00:29:40;;;;;;;2.80;2.60;;;15.70;41.50;;;;;;5137868;27;20834;-74
2022/06/01 00:32:11;;;;;;;3.60;3.30;;;15.70;41.60;;;;;;5118236;28;20493;-73
2022/06/01 00:34:40;;;;;;;6.60;3.10;;;15.70;41.90;;;;;;5127559;27;20945;-74
2022/06/01 00:37:08;;;;;;;6.13;3.10;;;15.60;42.00;;;;;;5139115;27;20991;-72
2022/06/01 00:39:35;;;;;;;7.43;3.10;;;15.50;43.30;;;;;;5126613;27;20457;-71
2022/06/01 00:42:14;;;;;;;4.10;2.70;;;15.50;43.10;;;;;;5139889;27;20450;-72
2022/06/01 00:44:41;;;;;;;3.67;3.37;;;15.40;43.40;;;;;;5139246;28;20585;-73
2022/06/01 00:47:10;;;;;;;3.10;2.90;;;15.40;43.90;;;;;;5142970;27;20424;-70
2022/06/01 00:49:42;;;;;;;3.30;3.00;;;15.30;44.40;;;;;;5159215;27;20765;-72
2022/06/01 00:52:10;;;;;;;3.53;3.20;;;15.20;44.40;;;;;;5129078;27;20516;-74
2022/06/01 00:54:37;;;;;;;3.90;3.60;;;15.10;44.30;;;;;;5128118;27;20443;-74
2022/06/01 00:57:09;;;;;;;3.53;3.23;;;15.00;44.20;;;;;;5128758;27;20467;-74
2022/06/01 00:59:39;;;;;;;3.23;2.93;;;14.90;45.30;;;;;;5118126;27;20451;-75
2022/06/01 01:02:07;;;;;;;2.53;2.33;;;14.90;45.80;;;;;;5130536;27;20485;-74
2022/06/01 01:04:36;;;;;;;3.70;3.40;;;14.80;46.00;;;;;;5123336;27;20607;-74
2022/06/01 01:07:09;;;;;;;3.97;3.37;;;14.80;46.60;;;;;;5135066;27;20451;-74
2022/06/01 01:09:36;;;;;;;3.10;2.77;;;14.80;47.20;;;;;;5135076;27;20424;-74
2022/06/01 01:12:06;;;;;;;3.57;3.27;;;14.80;47.10;;;;;;5132258;27;21044;-76
2022/06/01 01:14:36;;;;;;;3.77;3.33;;;14.80;47.10;;;;;;5125487;27;20437;-74
2022/06/01 01:17:06;;;;;;;3.90;3.37;;;14.70;47.40;;;;;;5141294;27;20466;-74
2022/06/01 01:19:36;;;;;;;4.23;3.83;;;14.70;48.10;;;;;;5150818;27;20441;-71
2022/06/01 01:22:15;;;;;;;3.40;3.13;;;14.70;48.20;;;;;;5140610;27;20461;-72
2022/06/01 01:24:51;;;;;;;3.00;2.80;;;14.70;48.40;;;;;;5150932;27;20441;-71
2022/06/01 01:27:19;;;;;;;5.43;3.13;;;14.70;48.10;;;;;;5134054;27;20815;-75
2022/06/01 01:29:46;;;;;;;3.80;3.50;;;14.70;48.70;;;;;;5145982;27;20437;-74
2022/06/01 01:32:15;;;;;;;3.47;3.17;;;14.60;48.60;;;;;;5140260;27;20485;-74
2022/06/01 01:34:43;;;;;;;4.40;3.50;;;14.60;48.70;;;;;;5136060;27;20536;-75
2022/06/01 01:37:16;;;;;;;4.10;3.03;;;14.50;48.80;;;;;;5139344;27;20446;-72
2022/06/01 01:39:43;;;;;;;3.43;3.20;;;14.40;48.60;;;;;;5153024;27;20445;-74
2022/06/01 01:42:10;;;;;;;3.40;3.10;;;14.40;49.00;;;;;;5132274;27;20497;-74
2022/06/01 01:44:44;;;;;;;3.37;3.13;;;14.40;48.60;;;;;;5125801;27;20446;-75
2022/06/01 01:47:12;;;;;;;3.37;3.07;;;14.40;48.70;;;;;;5128338;27;20916;-77
2022/06/01 01:49:40;;;;;;;3.10;2.90;;;14.30;49.10;;;;;;5117284;27;20508;-74
2022/06/01 01:52:10;;;;;;;5.00;4.10;;;14.40;49.50;;;;;;5128944;27;20846;-75
2022/06/01 01:54:46;;;;;;;4.77;3.27;;;14.40;49.50;;;;;;5122906;27;20443;-74
2022/06/01 01:57:24;;;;;;;3.83;3.50;;;14.30;49.50;;;;;;5119861;27;20903;-74
2022/06/01 02:00:04;;;;;;;3.30;3.00;;;14.20;49.60;;;;;;5135086;27;20782;-73
2022/06/01 02:02:36;;;;;;;5.83;3.47;;;14.10;50.70;;;;;;5127312;27;20397;-77
2022/06/01 02:07:58;;;;;;;5.97;3.73;;;14.00;50.70;;;;;;5137650;27;20415;-74
2022/06/01 02:13:11;;;;;;;3.40;3.10;;;14.10;51.30;;;;;;5121750;27;20481;-75
2022/06/01 02:15:44;;;;;;;3.27;2.97;;;14.10;51.20;;;;;;5131511;27;20210;-74
2022/06/01 02:18:14;;;;;;;4.80;3.60;;;14.10;51.40;;;;;;5129559;27;20482;-74
2022/06/01 02:20:44;;;;;;;2.73;2.53;;;14.00;52.30;;;;;;5123544;27;20466;-74
2022/06/01 02:23:13;;;;;;;3.90;3.13;;;14.00;51.70;;;;;;5119653;27;20829;-73
2022/06/01 02:25:42;;;;;;;4.73;2.90;;;14.00;51.70;;;;;;5129954;27;20532;-74
2022/06/01 02:28:10;;;;;;;3.17;2.90;;;14.00;51.30;;;;;;5118873;27;20513;-73
2022/06/01 02:30:42;;;;;;;4.27;3.23;;;13.90;51.20;;;;;;5126642;27;20470;-72
2022/06/01 02:33:11;;;;;;;5.27;3.23;;;13.90;50.80;;;;;;5128238;27;20806;-72
2022/06/01 02:35:43;;;;;;;4.37;3.30;;;13.90;50.70;;;;;;5132714;27;20544;-73
2022/06/01 02:38:15;;;;;;;3.37;3.10;;;13.90;51.00;;;;;;5118732;27;20511;-73
2022/06/01 02:40:42;;;;;;;4.47;3.20;;;13.80;50.80;;;;;;5122749;27;20456;-72
2022/06/01 02:43:10;;;;;;;5.13;3.70;;;13.80;50.70;;;;;;5126600;27;20416;-72
2022/06/01 02:45:36;;;;;;;3.10;2.90;;;13.80;50.70;;;;;;5116343;27;20449;-73
2022/06/01 02:48:06;;;;;;;3.60;3.30;;;13.70;51.00;;;;;;5129460;27;20493;-72
2022/06/01 02:50:35;;;;;;;3.65;3.35;;;13.60;51.60;;;;;;5114255;28;20228;-73
2022/06/01 02:53:02;;;;;;;5.57;3.00;;;13.60;51.90;;;;;;5127546;27;20417;-73
2022/06/01 02:55:31;;;;;;;4.32;3.92;;;13.50;52.50;;;;;;5118653;27;20201;-73
2022/06/01 02:57:58;;;;;;;3.22;3.03;;;13.50;52.50;;;;;;5118702;28;20226;-73
2022/06/01 03:00:27;;;;;;;3.80;3.38;;;13.50;52.50;;;;;;5136128;28;20224;-72
2022/06/01 03:02:56;;;;;;;4.15;3.28;;;13.40;52.40;;;;;;5124974;28;20648;-73
2022/06/01 03:05:28;;;;;;;4.50;3.00;;;13.30;52.50;;;;;;5143884;28;20187;-71
2022/06/01 03:07:56;;;;;;;3.20;2.97;;;13.20;52.20;;;;;;5152845;28;20216;-73
2022/06/01 03:10:23;;;;;;;5.10;3.42;;;13.20;53.30;;;;;;5152273;27;20222;-72
2022/06/01 03:12:50;;;;;;;4.40;3.20;;;13.10;53.10;;;;;;5146575;28;20250;-72
2022/06/01 03:15:20;;;;;;;4.18;3.00;;;13.10;53.00;;;;;;5131580;28;20641;-75
2022/06/01 03:17:47;;;;;;;3.78;3.47;;;13.00;53.30;;;;;;5118329;28;20228;-74
2022/06/01 03:20:16;;;;;;;4.53;4.13;;;13.00;53.10;;;;;;5129244;28;20750;-74
2022/06/01 03:22:45;;;;;;;3.80;3.10;;;12.90;53.50;;;;;;5124714;28;20242;-75
2022/06/01 03:25:14;;;;;;;3.67;3.38;;;12.90;53.60;;;;;;5120841;28;20196;-75
2022/06/01 03:27:42;;;;;;;3.90;3.47;;;12.90;53.90;;;;;;5132893;28;20196;-73
2022/06/01 03:30:12;;;;;;;3.50;3.17;;;12.90;52.80;;;;;;5129734;28;20196;-72
2022/06/01 03:32:39;;;;;;;4.30;3.90;;;13.00;52.00;;;;;;5137363;28;20572;-73
2022/06/01 03:35:07;;;;;;;3.90;3.50;;;13.10;52.10;;;;;;5129831;28;20423;-72
2022/06/01 03:37:34;;;;;;;4.97;3.30;;;13.10;52.10;;;;;;5136570;28;20509;-73
2022/06/01 03:40:02;;;;;;;4.95;3.50;;;13.20;52.20;;;;;;5116762;28;20921;-73
2022/06/01 03:42:30;;;;;;;3.50;3.20;;;13.20;51.40;;;;;;5131955;28;20188;-75
2022/06/01 03:47:41;;;;;;;4.28;3.45;;;13.30;50.90;;;;;;5132232;28;20444;-74
2022/06/01 03:50:10;;;;;;;3.20;3.00;;;13.40;50.50;;;;;;5129804;28;20246;-73
2022/06/01 03:52:37;;;;;;;3.90;3.40;;;13.50;49.80;;;;;;5133315;27;20469;-73
2022/06/01 03:55:08;;;;;;;3.73;3.23;;;13.60;49.80;;;;;;5138078;27;20431;-74
2022/06/01 03:57:34;;;;;;;4.90;3.70;;;13.70;50.30;;;;;;5139607;27;20536;-74
2022/06/01 04:00:02;;;;;;;5.73;3.57;;;13.70;50.50;;;;;;5139230;27;20498;-73
2022/06/01 04:02:28;;;;;;;5.10;3.50;;;13.70;50.70;;;;;;5133778;27;20519;-73
2022/06/01 04:04:55;;;;;;;3.97;3.50;;;13.60;50.70;;;;;;5132201;27;21298;-73
2022/06/01 04:07:22;;;;;;;3.60;3.30;;;13.60;50.50;;;;;;5131196;27;20426;-73
2022/06/01 04:09:49;;;;;;;3.77;3.47;;;13.60;51.30;;;;;;5132136;27;20544;-74
2022/06/01 04:12:17;;;;;;;4.55;3.45;;;13.60;51.50;;;;;;5132029;27;20955;-73
2022/06/01 04:14:44;;;;;;;3.70;3.27;;;13.60;51.70;;;;;;5132043;27;20199;-73
2022/06/01 04:17:11;;;;;;;3.70;3.40;;;13.70;52.00;;;;;;5133326;27;20451;-74
2022/06/01 04:19:38;;;;;;;5.20;3.37;;;13.80;51.40;;;;;;5137453;27;20436;-74
2022/06/01 04:22:05;;;;;;;3.83;3.53;;;13.80;51.20;;;;;;5136751;27;20447;-73
2022/06/01 04:24:34;;;;;;;3.57;3.13;;;13.80;51.20;;;;;;5138117;27;20468;-73
2022/06/01 04:27:02;;;;;;;3.50;3.20;;;13.80;51.10;;;;;;5138507;27;20464;-73
2022/06/01 04:29:30;;;;;;;4.07;3.72;;;13.90;50.80;;;;;;5138433;27;20430;-73
2022/06/01 04:32:01;;;;;;;5.67;4.20;;;13.90;50.80;;;;;;5138147;27;20714;-74
2022/06/01 04:34:28;;;;;;;3.80;3.47;;;14.00;50.60;;;;;;5136780;27;20846;-73
2022/06/01 04:36:55;;;;;;;4.23;3.93;;;14.00;50.00;;;;;;5136577;27;20941;-75
2022/06/01 04:39:22;;;;;;;3.63;3.33;;;14.00;49.60;;;;;;5138437;27;20445;-73
2022/06/01 04:41:49;;;;;;;4.20;3.80;;;14.10;49.50;;;;;;5136929;27;20439;-73
2022/06/01 04:44:16;;;;;;;3.60;3.30;;;14.10;49.50;;;;;;5136492;27;21001;-73
2022/06/01 04:46:44;;;;;;;7.57;3.80;;;14.10;49.30;;;;;;5137162;27;20443;-73
2022/06/01 04:49:11;;;;;;;3.80;3.50;;;14.20;49.10;;;;;;5137160;27;20465;-75
2022/06/01 04:51:39;;;;;;;5.43;3.77;;;14.30;48.90;;;;;;5136595;27;20762;-73
2022/06/01 04:54:07;;;;;;;6.03;3.53;;;14.50;48.60;;;;;;5136446;27;20584;-74
2022/06/01 04:56:34;;;;;;;8.87;4.83;;;15.00;47.30;;;;;;5138372;27;20519;-73
2022/06/01 04:59:01;;;;;;;9.87;3.87;;;15.90;45.10;;;;;;5139438;27;20450;-74
2022/06/01 05:01:28;;;;;;;6.47;3.03;;;17.00;42.30;;;;;;5139492;27;20520;-73
2022/06/01 05:03:57;;;;;;;11.53;3.30;;;17.90;38.30;;;;;;5136815;27;20460;-73
2022/06/01 05:06:24;;;;;;;4.10;2.83;;;18.70;36.30;;;;;;5137220;27;20439;-74
2022/06/01 05:08:51;;;;;;;7.63;3.40;;;19.30;34.20;;;;;;5137590;27;20478;-74
2022/06/01 05:11:19;;;;;;;6.47;3.40;;;19.50;33.20;;;;;;5136170;27;20444;-74
2022/06/01 05:13:46;;;;;;;3.03;2.80;;;19.80;32.60;;;;;;5135865;27;20485;-74
2022/06/01 05:16:14;;;;;;;5.43;3.00;;;20.40;31.00;;;;;;5136697;27;20466;-73
2022/06/01 05:18:40;;;;;;;4.27;2.93;;;21.00;29.60;;;;;;5136628;27;20450;-74
2022/06/01 05:21:09;;;;;;;6.17;3.03;;;21.40;29.40;;;;;;5136511;27;20517;-73
2022/06/01 05:23:36;;;;;;;5.03;3.00;;;21.90;28.30;;;;;;5136580;27;20802;-73
2022/06/01 05:26:04;;;;;;;3.20;2.70;;;22.20;27.80;;;;;;5137760;27;20448;-74
2022/06/01 05:28:33;;;;;;;3.23;2.63;;;22.40;27.20;;;;;;5152987;27;20441;-72
2022/06/01 05:31:02;;;;;;;3.37;3.07;;;22.50;27.00;;;;;;5153044;27;20460;-73
2022/06/01 05:33:28;;;;;;;3.17;2.97;;;22.00;28.00;;;;;;5155357;27;20469;-72
2022/06/01 05:35:55;;;;;;;3.00;2.70;;;21.80;28.60;;;;;;5157646;27;20671;-72
2022/06/01 05:38:24;;;;;;;4.57;3.20;;;21.40;29.90;;;;;;5138183;27;20442;-73
2022/06/01 05:40:51;;;;;;;5.13;3.80;;;21.40;29.90;;;;;;5137408;27;20556;-74
2022/06/01 05:43:19;;;;;;;4.73;3.17;;;21.50;30.00;;;;;;5142679;27;20985;-73
2022/06/01 05:45:47;;;;;;;4.73;3.20;;;21.50;30.00;;;;;;5139834;27;20446;-74
2022/06/01 05:48:18;;;;;;;4.77;3.10;;;21.70;30.00;;;;;;5136297;27;20489;-74
2022/06/01 05:50:45;;;;;;;7.83;3.20;;;22.10;29.30;;;;;;5135868;27;20561;-73
2022/06/01 05:53:12;;;;;;;4.03;3.53;;;22.40;28.50;;;;;;5135916;27;20462;-75
2022/06/01 05:55:40;;;;;;;3.20;3.00;;;22.00;29.20;;;;;;5135664;27;20445;-77
2022/06/01 05:58:16;;;;;;;5.03;3.33;;;22.20;29.00;;;;;;5136528;27;20812;-73
2022/06/01 06:00:44;;;;;;;4.63;3.00;;;22.30;28.50;;;;;;5139180;27;20453;-76
2022/06/01 06:03:12;;;;;;;8.57;3.47;;;22.10;28.80;;;;;;5138744;27;20456;-73
2022/06/01 06:08:23;;;;;;;4.77;2.87;;;22.30;28.60;;;;;;5135892;27;20424;-74
2022/06/01 06:10:51;;;;;;;8.80;3.63;;;22.80;27.50;;;;;;5136707;27;20545;-72
2022/06/01 06:13:19;;;;;;;9.17;2.80;;;22.90;27.40;;;;;;5136134;27;20591;-73
2022/06/01 06:15:46;;;;;;;7.27;2.67;;;22.70;27.10;;;;;;5142656;27;20452;-74
2022/06/01 06:18:13;;;;;;;3.80;3.30;;;22.50;27.40;;;;;;5150723;27;20460;-73
2022/06/01 06:20:42;;;;;;;4.23;2.87;;;22.80;27.50;;;;;;5141698;27;20917;-73
2022/06/01 06:23:09;;;;;;;4.70;2.97;;;22.80;26.80;;;;;;5134593;27;20446;-73
2022/06/01 06:25:36;;;;;;;3.57;3.27;;;22.40;27.30;;;;;;5134823;27;20454;-73
2022/06/01 06:28:05;;;;;;;2.73;2.53;;;22.00;27.80;;;;;;5134681;27;20507;-72
2022/06/01 06:30:32;;;;;;;3.00;2.70;;;21.80;27.80;;;;;;5134610;27;20555;-73
2022/06/01 06:32:59;;;;;;;4.37;3.30;;;21.70;28.20;;;;;;5134333;27;20424;-73
2022/06/01 06:35:25;;;;;;;3.23;2.50;;;22.00;27.60;;;;;;5135697;27;20465;-73
2022/06/01 06:37:52;;;;;;;3.60;2.60;;;22.40;27.10;;;;;;5137129;27;20529;-73
2022/06/01 06:40:19;;;;;;;6.83;3.20;;;22.50;27.10;;;;;;5137499;27;21064;-74
2022/06/01 06:42:46;;;;;;;8.50;3.13;;;22.50;27.50;;;;;;5137052;27;21147;-74
2022/06/01 06:45:14;;;;;;;3.10;2.90;;;22.60;27.30;;;;;;5134958;27;20463;-75
2022/06/01 06:47:41;;;;;;;5.27;2.67;;;22.60;26.80;;;;;;5134195;27;20975;-74
2022/06/01 06:50:11;;;;;;;4.33;3.03;;;22.00;27.80;;;;;;5134914;27;20417;-77
2022/06/01 06:52:39;;;;;;;2.87;2.63;;;22.00;28.40;;;;;;5134486;27;20449;-75
2022/06/01 06:55:08;;;;;;;3.50;3.20;;;22.00;29.10;;;;;;5133808;27;20516;-73
2022/06/01 06:57:35;;;;;;;3.83;3.47;;;21.50;30.00;;;;;;5134086;27;20453;-75
2022/06/01 07:00:04;;;;;;;6.23;3.47;;;21.00;30.60;;;;;;5134150;28;20547;-74
2022/06/01 07:02:32;;;;;;;3.03;2.73;;;20.40;32.00;;;;;;5133957;28;20517;-76
2022/06/01 07:04:59;;;;;;;4.73;2.93;;;20.10;33.10;;;;;;5134406;28;20453;-74
2022/06/01 07:07:26;;;;;;;4.27;3.90;;;19.90;33.90;;;;;;5136594;28;20431;-77
2022/06/01 07:09:53;;;;;;;7.90;3.60;;;19.60;35.10;;;;;;5136899;28;20494;-75
2022/06/01 07:12:20;;;;;;;5.13;3.77;;;19.50;35.90;;;;;;5135746;28;20533;-75
2022/06/01 07:14:47;;;;;;;5.30;3.30;;;19.50;36.40;;;;;;5136034;28;21032;-74
2022/06/01 07:17:13;;;;;;;6.80;3.43;;;19.40;36.30;;;;;;5136102;28;20552;-74
2022/06/01 07:19:42;;;;;;;5.00;3.33;;;19.50;36.40;;;;;;5136429;28;20457;-76
2022/06/01 07:22:09;;;;;;;12.90;3.20;;;19.50;36.60;;;;;;5134256;28;20580;-74
2022/06/01 07:24:36;;;;;;;7.60;3.50;;;19.40;36.20;;;;;;5133241;28;20945;-74
2022/06/01 07:27:03;;;;;;;6.20;3.53;;;19.40;35.70;;;;;;5137018;27;20454;-73
2022/06/01 07:29:30;;;;;;;5.70;3.80;;;19.40;35.90;;;;;;5138138;27;20457;-75
2022/06/01 07:31:57;;;;;;;2.80;2.57;;;19.30;36.00;;;;;;5137997;27;20443;-73
2022/06/01 07:34:24;;;;;;;4.10;3.10;;;19.40;36.20;;;;;;5138238;27;20456;-74
2022/06/01 07:36:52;;;;;;;3.93;3.10;;;19.50;33.90;;;;;;5138178;27;20487;-74
2022/06/01 07:44:53;;;;;;;5.77;2.50;;;19.50;29.50;;;;;;5138393;27;20424;-74
2022/06/01 07:47:20;;;;;;;6.50;2.63;;;19.50;29.90;;;;;;5138432;27;20924;-75
2022/06/01 07:49:47;;;;;;;2.57;2.37;;;19.60;29.70;;;;;;5144187;27;20459;-73
2022/06/01 07:52:16;;;;;;;2.87;2.50;;;19.60;29.40;;;;;;5160459;27;20473;-72
2022/06/01 07:54:44;;;;;;;2.67;2.47;;;19.70;29.50;;;;;;5151221;27;20542;-74
2022/06/01 07:57:12;;;;;;;2.33;2.00;;;19.90;28.80;;;;;;5159882;27;20449;-74
2022/06/01 07:59:39;;;;;;;3.03;2.43;;;19.90;28.70;;;;;;5156984;27;20473;-75
2022/06/01 08:02:09;;;;;;;2.63;2.43;;;19.80;27.50;;;;;;5160664;27;20460;-73
2022/06/01 08:04:38;;;;;;;4.77;2.63;;;19.90;27.30;;;;;;5162888;27;20415;-72
2022/06/01 08:07:05;;;;;;;2.70;2.50;;;19.90;27.40;;;;;;5139636;27;21087;-73
2022/06/01 08:09:33;;;;;;;3.03;2.70;;;20.10;26.60;;;;;;5137560;27;20915;-74
2022/06/01 08:14:44;;;;;;;2.80;2.20;;;20.30;25.30;;;;;;5137221;27;20454;-72
2022/06/01 08:17:11;;;;;;;4.77;2.20;;;20.10;25.70;;;;;;5137077;27;20502;-73
2022/06/01 08:19:38;;;;;;;2.80;2.00;;;20.20;25.40;;;;;;5136837;27;20485;-74
2022/06/01 08:22:06;;;;;;;3.57;2.10;;;20.30;25.60;;;;;;5137228;27;20474;-74
2022/06/01 08:24:34;;;;;;;2.07;1.87;;;20.30;25.40;;;;;;5136965;27;20449;-72
2022/06/01 08:27:01;;;;;;;2.33;1.80;;;20.30;25.10;;;;;;5136834;27;20536;-72
2022/06/01 08:29:28;;;;;;;2.57;2.37;;;20.40;25.40;;;;;;5136556;27;20454;-72
2022/06/01 08:31:55;;;;;;;5.13;2.17;;;20.60;25.20;;;;;;5136651;27;20470;-72
2022/06/01 08:34:22;;;;;;;4.90;2.50;;;20.60;25.00;;;;;;5136084;27;21039;-73
2022/06/01 08:36:49;;;;;;;4.70;2.53;;;20.60;26.30;;;;;;5136189;27;20416;-72
2022/06/01 08:39:15;;;;;;;2.20;2.00;;;20.60;25.90;;;;;;5136104;27;20454;-74
2022/06/01 08:41:44;;;;;;;2.23;2.03;;;20.80;25.40;;;;;;5136467;27;20505;-73
2022/06/01 08:44:23;;;;;;;6.37;2.50;;;20.80;24.80;;;;;;5136017;27;20878;-74
2022/06/01 08:46:52;;;;;;;2.30;2.10;;;20.90;23.80;;;;;;5138441;27;20458;-74
2022/06/01 08:49:25;;;;;;;2.27;1.80;;;21.00;23.30;;;;;;5138509;27;20557;-73
2022/06/01 08:51:52;;;;;;;2.13;2.00;;;20.90;23.50;;;;;;5139018;27;20520;-73
2022/06/01 08:54:20;;;;;;;2.37;2.03;;;20.90;23.30;;;;;;5138945;27;20539;-73
2022/06/01 08:56:50;;;;;;;2.80;1.83;;;20.80;23.70;;;;;;5137529;27;20436;-75
2022/06/01 08:59:27;;;;;;;3.00;2.23;;;20.90;23.40;;;;;;5136883;27;20548;-74
2022/06/01 09:02:02;;;;;;;1.90;1.80;;;20.90;23.50;;;;;;5136560;27;20451;-72
2022/06/01 09:04:36;;;;;;;6.50;1.90;;;20.90;23.00;;;;;;5136425;27;20480;-74
2022/06/01 09:07:16;;;;;;;3.40;2.20;;;21.00;23.20;;;;;;5135587;27;20425;-72
2022/06/01 09:09:58;;;;;;;2.10;1.90;;;21.10;23.30;;;;;;5135976;27;20454;-72
2022/06/01 09:12:26;;;;;;;2.20;2.00;;;21.10;23.40;;;;;;5135951;27;20541;-72
2022/06/01 09:14:57;;;;;;;2.20;2.00;;;21.00;23.30;;;;;;5135502;27;20549;-73
2022/06/01 09:17:24;;;;;;;3.60;1.90;;;21.10;23.40;;;;;;5135757;27;20428;-70
2022/06/01 09:22:43;;;;;;;4.00;2.00;;;21.30;23.20;;;;;;5135927;27;20451;-71
2022/06/01 09:25:13;;;;;;;2.27;2.07;;;21.40;22.80;;;;;;5134796;27;20416;-72
2022/06/01 09:27:47;;;;;;;2.47;2.27;;;21.60;22.40;;;;;;5135950;27;20455;-73
2022/06/01 09:30:26;;;;;;;3.80;2.10;;;21.70;22.50;;;;;;5134996;27;20538;-71
2022/06/01 09:33:03;;;;;;;2.57;1.63;;;21.70;23.00;;;;;;5136542;27;20455;-73
2022/06/01 09:35:34;;;;;;;2.50;1.77;;;21.80;22.30;;;;;;5135623;27;20531;-70
2022/06/01 09:38:05;;;;;;;3.90;2.10;;;22.00;22.10;;;;;;5135200;27;20429;-72
2022/06/01 09:40:33;;;;;;;3.90;2.07;;;22.00;22.10;;;;;;5135067;27;20474;-73
2022/06/01 09:43:01;;;;;;;1.93;1.83;;;21.90;22.10;;;;;;5135108;27;20451;-71
2022/06/01 09:45:33;;;;;;;3.03;2.27;;;21.80;21.90;;;;;;5135136;27;20473;-71
2022/06/01 09:48:14;;;;;;;1.90;1.70;;;21.90;22.10;;;;;;5135751;27;20445;-73
2022/06/01 09:50:44;;;;;;;11.10;1.90;;;22.10;22.20;;;;;;5135647;27;20537;-72
2022/06/01 09:53:19;;;;;;;5.33;1.90;;;22.30;21.60;;;;;;5136015;27;20492;-71
2022/06/01 09:55:54;;;;;;;1.90;1.80;;;22.40;21.60;;;;;;5138107;27;20588;-72
2022/06/01 10:06:48;;;;;;;2.30;2.10;;;22.90;20.30;;;;;;5135488;27;20419;-71
2022/06/01 10:09:21;;;;;;;4.00;2.40;;;22.90;20.60;;;;;;5135393;27;20430;-71
2022/06/01 10:11:51;;;;;;;4.80;2.17;;;22.90;20.90;;;;;;5145168;27;20429;-72
2022/06/01 10:14:22;;;;;;;2.00;1.80;;;23.00;21.00;;;;;;5158113;27;20478;-73
2022/06/01 10:17:09;;;;;;;3.13;1.83;;;23.00;20.30;;;;;;5151494;27;20436;-72
2022/06/01 10:19:40;;;;;;;10.00;2.13;;;22.70;20.70;;;;;;5159284;27;20497;-71
2022/06/01 10:22:15;;;;;;;4.17;1.90;;;22.60;21.30;;;;;;5151993;27;20452;-71
2022/06/01 10:24:48;;;;;;;4.37;2.10;;;22.70;21.20;;;;;;5139720;27;20425;-71
2022/06/01 10:27:17;;;;;;;2.30;2.10;;;22.60;21.50;;;;;;5140863;27;20538;-71
2022/06/01 10:29:50;;;;;;;4.23;2.10;;;22.70;21.70;;;;;;5136992;27;20453;-71
2022/06/01 10:32:27;;;;;;;2.60;1.70;;;23.10;21.10;;;;;;5136544;27;20446;-70
2022/06/01 10:35:05;;;;;;;1.93;1.60;;;22.90;20.70;;;;;;5135622;27;20444;-72
2022/06/01 10:37:36;;;;;;;1.93;1.70;;;23.20;20.70;;;;;;5134803;27;20945;-72
2022/06/01 10:40:08;;;;;;;1.70;1.60;;;23.50;20.60;;;;;;5135456;27;20501;-72
2022/06/01 10:45:29;;;;;;;2.07;1.87;;;23.60;20.20;;;;;;5149667;27;20428;-71
2022/06/01 10:48:02;;;;;;;2.13;1.77;;;23.70;19.80;;;;;;5150715;27;20492;-72
2022/06/01 10:50:33;;;;;;;2.30;1.80;;;23.50;19.70;;;;;;5151838;27;20507;-72
2022/06/01 10:53:04;;;;;;;8.03;1.70;;;23.60;19.80;;;;;;5152670;27;20437;-73
2022/06/01 10:55:36;;;;;;;1.87;1.60;;;23.60;19.70;;;;;;5154285;27;20485;-71
2022/06/01 10:58:03;;;;;;;1.53;1.40;;;23.30;20.30;;;;;;5153438;27;20947;-73
2022/06/01 11:00:40;;;;;;;3.10;2.00;;;23.40;20.40;;;;;;5150641;27;20476;-73
2022/06/01 11:03:35;;;;;;;1.67;1.57;;;23.30;20.40;;;;;;5148307;28;20449;-72
2022/06/01 11:06:23;;;;;;;2.83;1.80;;;23.50;19.70;;;;;;5141897;28;20445;-73
2022/06/01 11:08:59;;;;;;;1.83;1.73;;;24.00;19.30;;;;;;5141236;28;20890;-73
2022/06/01 11:11:40;;;;;;;3.33;1.67;;;24.20;18.70;;;;;;5144709;28;20447;-73
2022/06/01 11:14:21;;;;;;;2.87;1.73;;;24.50;18.70;;;;;;5151205;28;20465;-73
2022/06/01 11:16:57;;;;;;;1.90;1.63;;;24.70;18.60;;;;;;5153113;28;21026;-72
2022/06/01 11:19:34;;;;;;;1.83;1.73;;;24.70;19.00;;;;;;5151037;28;20441;-73
2022/06/01 11:22:10;;;;;;;3.53;1.70;;;24.60;18.60;;;;;;5144005;28;20571;-71
2022/06/01 11:24:59;;;;;;;2.57;1.87;;;24.10;19.40;;;;;;5139064;28;20443;-72
2022/06/01 11:27:36;;;;;;;2.63;1.77;;;23.80;18.90;;;;;;5139874;28;20455;-73
2022/06/01 11:30:12;;;;;;;4.13;1.90;;;23.50;18.40;;;;;;5137137;28;20419;-73
2022/06/01 11:32:53;;;;;;;2.90;1.27;;;23.60;17.90;;;;;;5136440;28;20462;-72
2022/06/01 11:35:28;;;;;;;2.10;1.73;;;23.80;17.30;;;;;;5135601;28;20499;-73
2022/06/01 11:38:03;;;;;;;2.40;1.60;;;23.90;17.10;;;;;;5136444;28;20502;-72
2022/06/01 11:40:41;;;;;;;1.87;1.60;;;24.00;16.90;;;;;;5136584;28;20504;-72
2022/06/01 11:43:16;;;;;;;1.73;1.37;;;23.90;17.10;;;;;;5144208;28;20544;-74
2022/06/01 11:45:46;;;;;;;1.30;1.20;;;23.80;17.20;;;;;;5143786;28;20457;-73
2022/06/01 11:48:20;;;;;;;1.50;1.40;;;23.90;17.30;;;;;;5142371;28;20530;-71
2022/06/01 11:50:56;;;;;;;3.43;1.57;;;24.40;16.60;;;;;;5139685;28;20622;-72
2022/06/01 11:53:30;;;;;;;7.40;1.53;;;24.30;15.90;;;;;;5135831;28;20439;-72
2022/06/01 11:56:11;;;;;;;1.50;1.40;;;23.90;16.50;;;;;;5135190;28;20500;-72
2022/06/01 11:58:41;;;;;;;1.77;1.30;;;23.90;16.70;;;;;;5135673;28;20449;-72
2022/06/01 12:01:14;;;;;;;1.57;1.47;;;23.90;16.20;;;;;;5137941;28;20480;-72
2022/06/01 12:03:55;;;;;;;1.30;1.13;;;23.80;15.40;;;;;;5136426;28;20452;-73
2022/06/01 12:06:43;;;;;;;1.40;1.07;;;23.90;15.50;;;;;;5134613;28;20449;-72
2022/06/01 12:09:19;;;;;;;1.87;1.43;;;24.00;15.10;;;;;;5135064;28;20446;-73
2022/06/01 12:11:47;;;;;;;2.77;1.40;;;24.10;15.20;;;;;;5134591;27;20471;-73
2022/06/01 12:14:26;;;;;;;2.90;1.10;;;24.00;14.60;;;;;;5137781;27;20616;-73
2022/06/01 12:17:25;;;;;;;3.23;1.40;;;24.00;14.50;;;;;;5138794;27;20452;-71
2022/06/01 12:20:14;;;;;;;2.13;1.30;;;24.00;14.70;;;;;;5138704;27;20488;-72
2022/06/01 12:28:48;;;;;;;1.30;1.10;;;23.90;14.70;;;;;;5154955;27;20428;-72
2022/06/01 12:31:17;;;;;;;2.47;1.37;;;23.90;15.00;;;;;;5146855;27;20534;-72
2022/06/01 12:34:08;;;;;;;7.13;1.33;;;24.10;15.10;;;;;;5152236;27;20514;-72
2022/06/01 12:36:44;;;;;;;2.70;1.23;;;24.20;13.70;;;;;;5158463;27;20469;-73
2022/06/01 12:39:17;;;;;;;2.43;1.17;;;24.30;14.60;;;;;;5158382;27;20509;-74
2022/06/01 12:41:48;;;;;;;6.60;2.13;;;24.40;15.30;;;;;;5159354;27;20471;-74
2022/06/01 12:44:17;;;;;;;1.40;1.30;;;24.50;14.30;;;;;;5157320;27;20477;-75
2022/06/01 12:46:48;;;;;;;5.80;1.50;;;24.30;14.40;;;;;;5156561;27;20447;-73
2022/06/01 12:49:28;;;;;;;1.60;1.50;;;24.30;14.20;;;;;;5157418;27;20641;-73
2022/06/01 12:52:01;;;;;;;4.10;1.80;;;24.40;13.60;;;;;;5154690;27;20968;-71
2022/06/01 12:54:30;;;;;;;2.20;1.23;;;24.60;14.20;;;;;;5156890;27;20943;-72
2022/06/01 12:56:57;;;;;;;1.63;1.50;;;24.80;14.50;;;;;;5155747;27;20506;-74
2022/06/01 12:59:24;;;;;;;2.90;1.30;;;24.90;14.10;;;;;;5154702;27;20541;-73
2022/06/01 13:01:52;;;;;;;1.27;1.17;;;24.80;14.00;;;;;;5154395;27;20540;-74
2022/06/01 13:04:24;;;;;;;2.83;1.20;;;24.90;13.70;;;;;;5153249;27;20441;-74
2022/06/01 13:06:51;;;;;;;1.73;1.20;;;24.90;13.30;;;;;;5154830;27;20518;-74
2022/06/01 13:09:25;;;;;;;1.00;1.00;;;24.80;13.60;;;;;;5153656;27;20512;-73
2022/06/01 13:12:00;;;;;;;1.13;1.10;;;24.50;14.40;;;;;;5155926;27;20478;-74
2022/06/01 13:14:29;;;;;;;3.23;1.27;;;24.70;14.20;;;;;;5154087;27;20445;-72
2022/06/01 13:17:01;;;;;;;2.87;1.10;;;24.80;13.90;;;;;;5155142;27;20491;-74
2022/06/01 13:19:31;;;;;;;5.97;1.90;;;24.70;13.90;;;;;;5154901;27;20476;-73
2022/06/01 13:22:07;;;;;;;5.03;1.40;;;24.80;14.20;;;;;;5153639;27;20461;-74
2022/06/01 13:24:42;;;;;;;2.17;1.13;;;24.80;14.70;;;;;;5153239;27;20445;-72
2022/06/01 13:27:09;;;;;;;2.37;1.37;;;25.00;14.10;;;;;;5156524;27;20467;-76
2022/06/01 13:29:39;;;;;;;1.40;1.30;;;25.30;13.90;;;;;;5148391;27;21004;-74
2022/06/01 13:32:10;;;;;;;2.40;1.10;;;25.10;13.50;;;;;;5146971;27;20482;-74
2022/06/01 13:34:44;;;;;;;1.43;1.20;;;24.70;14.30;;;;;;5146518;27;20463;-74
2022/06/01 13:37:16;;;;;;;3.80;2.13;;;24.80;14.40;;;;;;5143154;27;20473;-75
2022/06/01 13:39:53;;;;;;;1.33;1.20;;;25.00;14.10;;;;;;5138236;27;20485;-76
2022/06/01 13:42:26;;;;;;;3.30;1.57;;;25.20;14.10;;;;;;5137907;27;20459;-74